Terminal Aerodrome Forecast
Issued by NWS

Current Version | Previous Version | Text Only | Print | Product List | Glossary Off
Versions: 1 2 3 4 5 6 7 8 9 10 11 12 13 14 15 16 17 18 19 20 21 22 23 24 25 26 27 28 29 30 31 32 33

727
FTUS41 KILN 012228 AAC
TAFLUK
TAF AMD
KLUK 012228Z 0122/0218 22006KT P6SM VCTS BKN050CB
      TEMPO 0122/0124 18015G30KT 1SM +TSRA BR OVC022CB
     FM020100 21003KT P6SM VCSH BKN050
     FM021100 29004KT P6SM SCT025 BKN035
     FM021500 32005KT P6SM BKN025=

USA.gov is the U.S. government's official web portal to all federal, state and local government web resources and services.